Smelterville, Idaho
Current Conditions -  °F | °C
As of 10:41 AM on Thursday 27 Nov 2014 (Local Time) from KMLP Reporting Station
Light Rain Light Rain  
Wind Chill: 27°   Ceiling: 3400
Heat Index: 36°   Visibility: 9mi
Dew Point: 36°   Wind: 14mph
Humidity: 100%   Direction: 200°SSW
Pressure: 29.92"   Gusts: 29mph
Location:  47.54°N, 116.18°W
Report Text: KMLP 271841Z AUTO 20012G25KT 9SM -RA SCT028 BKN034 OVC060 02/02 A2992 RMK AO2 PK WND 21029/1822 P0001 T00220022
Loading
Personal Weather Stations






























Interactive Weather Map New forecast layout! Learn more

10-Day Weather Forecast

Advertisements
Track Severe Weather on mobile